Time;durP1;ratioP1;P1;durP2;ratioP2;P2;SDS_P1;SDS_P2;PMS_P1;PMS_P2;Temp;Humidity;BMP_temperature;BMP_pressure;BME280_temperature;BME280_humidity;BME280_pressure;Samples;Min_cycle;Max_cycle;Signal;HPM_P1;HPM_P2
2022/04/08 00:02:21;;;;;;;2.97;0.90;;;14.30;49.50;;;;;;2403243;52;20919;-83
2022/04/08 00:04:57;;;;;;;4.12;0.82;;;14.30;49.50;;;;;;2662111;52;20900;-84
2022/04/08 00:07:24;;;;;;;3.65;0.70;;;14.30;49.50;;;;;;2661661;52;20951;-83
2022/04/08 00:09:50;;;;;;;3.67;1.00;;;14.30;49.50;;;;;;2661251;52;20967;-84
2022/04/08 00:12:16;;;;;;;3.10;0.73;;;14.30;49.60;;;;;;2403030;52;21034;-84
2022/04/08 00:14:43;;;;;;;3.03;1.00;;;14.30;49.70;;;;;;2403077;52;21030;-84
2022/04/08 00:17:09;;;;;;;3.42;0.70;;;14.30;49.70;;;;;;2660719;52;20947;-83
2022/04/08 00:19:36;;;;;;;2.20;0.70;;;14.30;49.80;;;;;;2658140;52;20887;-82
2022/04/08 00:22:05;;;;;;;3.03;0.65;;;14.30;49.60;;;;;;2661814;52;20966;-83
2022/04/08 00:24:32;;;;;;;4.10;0.88;;;14.20;49.60;;;;;;2384308;53;20914;-83
2022/04/08 00:26:58;;;;;;;3.42;0.82;;;14.20;49.50;;;;;;2394790;52;21973;-83
2022/04/08 00:29:25;;;;;;;4.53;0.93;;;14.20;49.00;;;;;;2403553;53;20852;-83
2022/04/08 00:31:57;;;;;;;7.05;1.02;;;14.20;49.10;;;;;;2663064;52;20999;-83
2022/04/08 00:34:25;;;;;;;2.70;0.60;;;14.20;48.80;;;;;;2651979;51;21002;-83
2022/04/08 00:36:51;;;;;;;2.97;0.80;;;14.10;48.70;;;;;;2389948;52;20922;-83
2022/04/08 00:39:17;;;;;;;4.18;0.80;;;14.10;48.50;;;;;;2663364;52;21021;-84
2022/04/08 00:41:44;;;;;;;2.95;0.62;;;14.20;48.60;;;;;;2395920;52;20926;-83
2022/04/08 00:44:10;;;;;;;4.62;1.00;;;14.10;48.30;;;;;;2402558;53;20946;-84
2022/04/08 00:46:38;;;;;;;2.37;0.60;;;14.00;48.20;;;;;;2663549;52;20908;-83
2022/04/08 00:49:05;;;;;;;2.62;0.80;;;14.00;48.20;;;;;;2405717;53;20970;-84
2022/04/08 00:51:33;;;;;;;2.92;0.70;;;14.00;47.90;;;;;;2663834;52;21878;-84
2022/04/08 00:53:59;;;;;;;2.83;0.98;;;14.00;48.00;;;;;;2644084;51;20981;-83
2022/04/08 00:56:28;;;;;;;2.00;0.50;;;13.90;47.80;;;;;;2396384;52;20903;-83
2022/04/08 00:58:55;;;;;;;3.03;0.60;;;13.90;47.70;;;;;;2400140;52;20991;-84
2022/04/08 01:01:23;;;;;;;2.08;0.55;;;13.90;47.60;;;;;;2404399;52;20919;-83
2022/04/08 01:03:52;;;;;;;2.25;0.40;;;13.80;47.60;;;;;;2662802;52;20954;-84
2022/04/08 01:06:21;;;;;;;3.42;0.57;;;13.80;47.60;;;;;;2663670;52;20951;-84
2022/04/08 01:08:49;;;;;;;2.62;0.55;;;13.80;47.60;;;;;;2404366;52;20907;-83
2022/04/08 01:11:16;;;;;;;1.23;0.40;;;13.80;47.70;;;;;;2663715;52;20962;-83
2022/04/08 01:13:42;;;;;;;1.40;0.30;;;13.80;47.70;;;;;;2404258;52;20935;-84
2022/04/08 01:16:09;;;;;;;3.30;0.68;;;13.80;47.60;;;;;;2663053;52;20974;-84
2022/04/08 01:18:35;;;;;;;4.37;0.60;;;13.70;47.60;;;;;;2404906;53;20904;-83
2022/04/08 01:21:05;;;;;;;2.95;0.80;;;13.70;47.60;;;;;;2663180;52;20945;-83
2022/04/08 01:23:34;;;;;;;4.37;0.80;;;13.70;47.60;;;;;;2662755;52;21003;-83
2022/04/08 01:26:07;;;;;;;3.87;0.90;;;13.70;47.60;;;;;;2663548;52;21486;-83
2022/04/08 01:28:33;;;;;;;3.95;0.88;;;13.70;47.50;;;;;;2662599;52;20959;-85
2022/04/08 01:31:00;;;;;;;5.45;0.93;;;13.70;47.30;;;;;;2637339;51;20982;-83
2022/04/08 01:33:26;;;;;;;3.45;0.68;;;13.70;47.30;;;;;;2401280;53;20935;-83
2022/04/08 01:35:53;;;;;;;2.75;0.60;;;13.70;47.10;;;;;;2662950;52;22210;-83
2022/04/08 01:38:19;;;;;;;2.33;0.70;;;13.70;47.20;;;;;;2404689;53;21780;-83
2022/04/08 01:40:46;;;;;;;2.10;0.50;;;13.70;47.30;;;;;;2663130;52;20895;-84
2022/04/08 01:43:12;;;;;;;1.98;0.57;;;13.70;47.30;;;;;;2404635;53;20915;-84
2022/04/08 01:45:38;;;;;;;3.30;0.62;;;13.70;47.30;;;;;;2404663;53;20935;-84
2022/04/08 01:48:05;;;;;;;3.40;0.70;;;13.70;47.20;;;;;;2663632;52;20871;-83
2022/04/08 01:50:31;;;;;;;2.40;0.70;;;13.70;47.20;;;;;;2660832;52;20971;-84
2022/04/08 01:52:58;;;;;;;4.05;0.88;;;13.70;47.30;;;;;;2382779;52;20900;-84
2022/04/08 01:55:24;;;;;;;2.62;0.60;;;13.70;47.10;;;;;;2403962;52;20927;-84
2022/04/08 01:57:51;;;;;;;2.80;0.70;;;13.70;46.90;;;;;;2663054;52;20900;-83
2022/04/08 02:00:17;;;;;;;2.72;0.70;;;13.70;46.90;;;;;;2404898;52;20981;-85
2022/04/08 02:02:44;;;;;;;3.55;0.80;;;13.60;46.70;;;;;;2633726;51;20907;-84
2022/04/08 02:05:10;;;;;;;2.22;0.55;;;13.60;46.70;;;;;;2404903;52;21013;-84
2022/04/08 02:07:36;;;;;;;3.42;0.50;;;13.60;46.70;;;;;;2405124;53;20962;-85
2022/04/08 02:10:04;;;;;;;3.50;0.80;;;13.60;46.70;;;;;;2404841;53;20888;-85
2022/04/08 02:12:30;;;;;;;4.62;1.02;;;13.60;46.70;;;;;;2663693;52;20907;-83
2022/04/08 02:14:56;;;;;;;4.07;0.62;;;13.60;46.60;;;;;;2663496;52;20995;-84
2022/04/08 02:17:25;;;;;;;3.75;1.02;;;13.60;46.40;;;;;;2405060;52;20924;-83
2022/04/08 02:19:55;;;;;;;3.83;1.10;;;13.60;46.50;;;;;;2383932;53;20908;-84
2022/04/08 02:22:23;;;;;;;3.62;0.60;;;13.60;46.30;;;;;;2633633;52;20951;-83
2022/04/08 02:24:52;;;;;;;2.22;0.47;;;13.60;46.50;;;;;;2383989;53;20919;-83
2022/04/08 02:27:22;;;;;;;1.98;0.50;;;13.60;46.40;;;;;;2397969;52;20933;-84
2022/04/08 02:29:48;;;;;;;4.87;0.60;;;13.60;46.40;;;;;;2392050;53;20939;-84
2022/04/08 02:32:14;;;;;;;5.35;0.93;;;13.60;46.50;;;;;;2408063;52;20904;-85
2022/04/08 02:34:40;;;;;;;1.98;0.60;;;13.60;46.60;;;;;;2655142;51;20993;-83
2022/04/08 02:37:07;;;;;;;2.67;0.62;;;13.60;46.60;;;;;;2399165;53;20899;-84
2022/04/08 02:39:36;;;;;;;1.83;0.52;;;13.60;46.60;;;;;;2647821;51;20945;-84
2022/04/08 02:42:02;;;;;;;4.53;0.60;;;13.60;46.50;;;;;;2393735;52;20888;-83
2022/04/08 02:44:30;;;;;;;2.40;0.60;;;13.60;46.50;;;;;;2663895;52;20892;-83
2022/04/08 02:46:58;;;;;;;3.03;0.77;;;13.60;46.60;;;;;;2404887;52;20978;-83
2022/04/08 02:49:24;;;;;;;2.53;0.50;;;13.60;46.60;;;;;;2663353;52;20919;-83
2022/04/08 02:51:50;;;;;;;5.10;0.77;;;13.60;46.60;;;;;;2633293;51;21034;-83
2022/04/08 02:54:17;;;;;;;2.50;0.47;;;13.60;46.60;;;;;;2660971;52;20919;-84
2022/04/08 02:56:43;;;;;;;3.72;0.62;;;13.60;46.50;;;;;;2405105;52;20927;-84
2022/04/08 02:59:09;;;;;;;3.37;0.80;;;13.50;46.40;;;;;;2380412;53;20947;-83
2022/04/08 03:01:36;;;;;;;10.23;1.27;;;13.50;46.40;;;;;;2384042;52;21451;-84
2022/04/08 03:04:05;;;;;;;2.90;0.62;;;13.50;46.40;;;;;;2404391;53;20919;-84
2022/04/08 03:06:33;;;;;;;3.25;0.52;;;13.50;46.40;;;;;;2385720;53;21787;-84
2022/04/08 03:09:00;;;;;;;2.70;0.65;;;13.50;46.40;;;;;;2633401;52;20959;-84
2022/04/08 03:11:26;;;;;;;2.45;0.60;;;13.50;46.50;;;;;;2651082;51;20969;-84
2022/04/08 03:13:52;;;;;;;2.62;0.68;;;13.50;46.40;;;;;;2390089;52;21014;-84
2022/04/08 03:16:19;;;;;;;3.75;0.60;;;13.50;46.40;;;;;;2663302;52;20919;-83
2022/04/08 03:18:46;;;;;;;4.57;0.60;;;13.50;46.40;;;;;;2632636;51;20951;-84
2022/04/08 03:21:16;;;;;;;2.83;0.50;;;13.50;46.30;;;;;;2661789;52;20922;-83
2022/04/08 03:23:43;;;;;;;3.78;0.75;;;13.50;46.20;;;;;;2663030;52;20920;-84
2022/04/08 03:26:09;;;;;;;2.40;0.60;;;13.50;46.10;;;;;;2404381;52;21992;-83
2022/04/08 03:28:36;;;;;;;2.12;0.60;;;13.50;46.20;;;;;;2660051;51;20963;-84
2022/04/08 03:31:02;;;;;;;2.58;0.75;;;13.50;46.10;;;;;;2631501;52;20963;-84
2022/04/08 03:33:29;;;;;;;2.90;0.52;;;13.50;46.00;;;;;;2661008;52;20903;-83
2022/04/08 03:35:55;;;;;;;4.50;0.82;;;13.50;45.90;;;;;;2397309;52;21033;-84
2022/04/08 03:38:21;;;;;;;3.80;0.50;;;13.50;45.90;;;;;;2398791;52;20929;-83
2022/04/08 03:40:51;;;;;;;1.33;0.40;;;13.50;45.90;;;;;;2398119;53;20939;-82
2022/04/08 03:43:18;;;;;;;1.50;0.20;;;13.50;45.80;;;;;;2400347;52;21037;-84
2022/04/08 03:45:44;;;;;;;2.97;0.60;;;13.50;45.90;;;;;;2402468;53;20934;-82
2022/04/08 03:48:11;;;;;;;1.67;0.50;;;13.50;45.90;;;;;;2661253;52;20947;-83
2022/04/08 03:50:37;;;;;;;3.12;0.45;;;13.50;45.70;;;;;;2661946;52;21006;-83
2022/04/08 03:53:03;;;;;;;1.50;0.50;;;13.40;45.60;;;;;;2390605;52;21413;-84
2022/04/08 03:55:30;;;;;;;2.65;0.68;;;13.50;45.70;;;;;;2649067;51;20943;-83
2022/04/08 03:57:56;;;;;;;4.35;0.80;;;13.40;45.60;;;;;;2658746;51;21692;-83
2022/04/08 04:00:22;;;;;;;2.25;0.50;;;13.40;45.60;;;;;;2379270;52;20959;-83
2022/04/08 04:02:49;;;;;;;2.25;0.60;;;13.40;45.60;;;;;;2400067;52;20973;-83
2022/04/08 04:05:15;;;;;;;1.02;0.30;;;13.40;45.60;;;;;;2381073;52;21089;-83
2022/04/08 04:07:41;;;;;;;1.40;0.50;;;13.40;45.70;;;;;;2382160;53;20927;-83
2022/04/08 04:10:08;;;;;;;0.77;0.35;;;13.40;45.70;;;;;;2629581;51;20930;-83
2022/04/08 04:12:34;;;;;;;2.60;0.60;;;13.40;45.70;;;;;;2660292;52;21461;-83
2022/04/08 04:15:03;;;;;;;3.20;0.50;;;13.40;45.70;;;;;;2659669;52;20986;-82
2022/04/08 04:17:30;;;;;;;2.67;0.52;;;13.30;45.70;;;;;;2644200;51;20910;-82
2022/04/08 04:19:57;;;;;;;1.25;0.50;;;13.30;45.70;;;;;;2646095;51;20907;-82
2022/04/08 04:22:23;;;;;;;2.85;0.50;;;13.30;45.70;;;;;;2643080;51;20934;-83
2022/04/08 04:24:50;;;;;;;2.85;0.68;;;13.30;45.80;;;;;;2629167;51;20930;-81
2022/04/08 04:27:16;;;;;;;1.40;0.50;;;13.30;45.80;;;;;;2642208;51;21007;-82
2022/04/08 04:29:42;;;;;;;1.48;0.40;;;13.30;45.90;;;;;;2656728;52;20895;-82
2022/04/08 04:32:09;;;;;;;2.25;0.57;;;13.20;45.90;;;;;;2388638;52;20894;-83
2022/04/08 04:34:37;;;;;;;2.12;0.57;;;13.20;45.90;;;;;;2390859;52;21360;-82
2022/04/08 04:37:04;;;;;;;2.00;0.50;;;13.00;45.80;;;;;;2399522;52;21748;-83
2022/04/08 04:39:30;;;;;;;1.75;0.40;;;13.20;46.20;;;;;;2400287;52;21735;-83
2022/04/08 04:41:58;;;;;;;1.75;0.30;;;13.10;46.20;;;;;;2401221;52;20924;-84
2022/04/08 04:44:26;;;;;;;1.12;0.40;;;13.10;46.20;;;;;;2648034;51;20966;-83
2022/04/08 04:46:53;;;;;;;1.77;0.40;;;13.10;46.30;;;;;;2645723;51;21011;-83
2022/04/08 04:49:20;;;;;;;1.83;0.45;;;13.00;46.40;;;;;;2637742;51;20965;-83
2022/04/08 04:51:46;;;;;;;3.53;0.60;;;13.00;46.60;;;;;;2642901;51;20946;-82
2022/04/08 04:54:13;;;;;;;2.45;0.75;;;12.90;46.80;;;;;;2378879;53;20951;-82
2022/04/08 04:56:39;;;;;;;1.45;0.57;;;12.90;47.60;;;;;;2656327;52;20983;-82
2022/04/08 04:59:06;;;;;;;2.85;0.60;;;12.80;47.20;;;;;;2399956;53;20963;-83
2022/04/08 05:01:32;;;;;;;3.37;0.80;;;12.80;47.40;;;;;;2654471;52;21064;-83
2022/04/08 05:03:59;;;;;;;3.15;1.08;;;12.70;47.60;;;;;;2399989;53;21942;-82
2022/04/08 05:06:25;;;;;;;3.55;1.00;;;12.70;47.70;;;;;;2657975;52;21450;-82
2022/04/08 05:08:52;;;;;;;4.53;1.85;;;12.60;47.80;;;;;;2400507;52;20983;-83
2022/04/08 05:11:18;;;;;;;7.97;4.20;;;12.60;47.90;;;;;;2657982;52;20915;-82
2022/04/08 05:13:44;;;;;;;7.70;4.78;;;12.60;48.10;;;;;;2657634;52;20892;-82
2022/04/08 05:16:11;;;;;;;7.00;3.62;;;12.50;48.10;;;;;;2399804;52;20942;-82
2022/04/08 05:18:37;;;;;;;7.82;4.22;;;12.60;48.30;;;;;;2400237;53;20962;-82
2022/04/08 05:21:04;;;;;;;7.40;4.35;;;12.50;48.30;;;;;;2657511;52;21194;-84
2022/04/08 05:23:31;;;;;;;7.30;4.15;;;12.40;48.40;;;;;;2628264;51;20899;-83
2022/04/08 05:25:57;;;;;;;6.07;3.65;;;12.40;48.60;;;;;;2380877;53;20973;-82
2022/04/08 05:28:23;;;;;;;4.87;2.30;;;12.30;48.60;;;;;;2398691;52;20971;-82
2022/04/08 05:30:49;;;;;;;4.65;1.80;;;12.30;48.70;;;;;;2399374;53;20954;-82
2022/04/08 05:33:16;;;;;;;2.92;1.37;;;12.30;48.90;;;;;;2379377;52;20994;-82
2022/04/08 05:35:42;;;;;;;3.55;1.20;;;12.30;49.10;;;;;;2400796;52;21364;-83
2022/04/08 05:38:08;;;;;;;2.95;0.85;;;12.20;49.10;;;;;;2399944;53;21969;-82
2022/04/08 05:40:35;;;;;;;3.08;0.70;;;12.20;49.10;;;;;;2659002;52;21443;-83
2022/04/08 05:43:01;;;;;;;4.95;1.10;;;12.20;49.20;;;;;;2659287;52;21517;-82
2022/04/08 05:45:27;;;;;;;2.08;0.70;;;12.10;49.30;;;;;;2658214;52;20899;-82
2022/04/08 05:47:54;;;;;;;2.20;0.80;;;12.10;49.40;;;;;;2628686;51;21105;-82
2022/04/08 05:50:20;;;;;;;2.05;0.52;;;12.10;49.50;;;;;;2399838;52;20923;-82
2022/04/08 05:52:47;;;;;;;3.92;0.80;;;12.10;49.60;;;;;;2399743;52;21590;-81
2022/04/08 05:55:13;;;;;;;3.75;0.98;;;12.00;49.60;;;;;;2658311;52;20899;-83
2022/04/08 05:57:40;;;;;;;6.55;2.10;;;12.00;49.70;;;;;;2658068;52;21049;-81
2022/04/08 06:00:10;;;;;;;5.90;2.08;;;12.00;49.80;;;;;;2658496;52;21488;-82
2022/04/08 06:02:40;;;;;;;6.28;2.22;;;12.00;49.80;;;;;;2658254;52;20904;-83
2022/04/08 06:05:08;;;;;;;5.87;2.33;;;12.00;50.10;;;;;;2628019;52;21701;-82
2022/04/08 06:07:34;;;;;;;4.53;2.00;;;12.00;50.10;;;;;;2400802;52;21361;-82
2022/04/08 06:10:01;;;;;;;3.80;1.37;;;12.00;50.10;;;;;;2394528;52;20977;-82
2022/04/08 06:12:27;;;;;;;4.93;1.30;;;11.90;50.00;;;;;;2640965;51;20915;-82
2022/04/08 06:14:53;;;;;;;2.37;0.98;;;11.90;50.00;;;;;;2399128;52;21416;-82
2022/04/08 06:17:19;;;;;;;3.65;0.88;;;11.90;50.00;;;;;;2658028;52;20943;-82
2022/04/08 06:19:48;;;;;;;2.97;0.90;;;11.90;50.00;;;;;;2642207;51;21511;-83
2022/04/08 06:22:14;;;;;;;1.98;0.70;;;11.90;50.00;;;;;;2645115;51;20914;-82
2022/04/08 06:24:40;;;;;;;2.53;0.65;;;11.80;50.00;;;;;;2398981;53;20947;-82
2022/04/08 06:27:07;;;;;;;2.47;0.90;;;11.80;50.00;;;;;;2658615;52;20891;-82
2022/04/08 06:29:33;;;;;;;2.20;0.62;;;11.80;50.10;;;;;;2400213;53;21715;-82
2022/04/08 06:31:59;;;;;;;1.40;0.40;;;11.80;50.30;;;;;;2400075;52;20923;-82
2022/04/08 06:34:26;;;;;;;1.42;0.60;;;11.80;50.40;;;;;;2400185;53;20891;-82
2022/04/08 06:36:53;;;;;;;2.75;0.60;;;11.80;50.50;;;;;;2399520;52;20903;-82
2022/04/08 06:39:19;;;;;;;2.60;0.50;;;11.80;50.60;;;;;;2656163;52;21931;-82
2022/04/08 06:41:45;;;;;;;1.20;0.50;;;11.80;50.60;;;;;;2400121;52;21466;-83
2022/04/08 06:44:12;;;;;;;1.42;0.57;;;11.80;50.80;;;;;;2657997;52;20951;-82
2022/04/08 06:46:38;;;;;;;1.65;0.55;;;11.80;50.90;;;;;;2628824;52;20911;-81
2022/04/08 06:49:05;;;;;;;1.75;0.57;;;11.80;50.90;;;;;;2400298;52;21867;-82
2022/04/08 06:51:31;;;;;;;1.95;0.57;;;11.70;50.90;;;;;;2401954;52;20931;-83
2022/04/08 06:53:57;;;;;;;2.50;0.50;;;11.70;50.90;;;;;;2626924;51;21014;-81
2022/04/08 06:56:24;;;;;;;1.85;0.70;;;11.70;51.00;;;;;;2658107;52;20926;-84
2022/04/08 06:58:50;;;;;;;1.48;0.57;;;11.70;51.00;;;;;;2657570;52;20963;-82
2022/04/08 07:01:17;;;;;;;1.25;0.50;;;11.70;51.10;;;;;;2628019;51;21811;-82
2022/04/08 07:03:43;;;;;;;1.85;0.70;;;11.70;51.20;;;;;;2656520;51;20955;-82
2022/04/08 07:06:09;;;;;;;3.72;0.60;;;11.70;51.20;;;;;;2658353;52;21432;-82
2022/04/08 07:08:36;;;;;;;1.48;0.40;;;11.70;51.30;;;;;;2379932;52;21001;-82
2022/04/08 07:11:02;;;;;;;1.33;0.40;;;11.60;51.30;;;;;;2379797;52;20918;-82
2022/04/08 07:13:28;;;;;;;1.67;0.40;;;11.60;51.40;;;;;;2658482;52;20907;-82
2022/04/08 07:15:54;;;;;;;1.25;0.40;;;11.60;51.40;;;;;;2399824;52;20907;-81
2022/04/08 07:18:21;;;;;;;1.90;0.43;;;11.60;51.50;;;;;;2400672;53;20919;-82
2022/04/08 07:20:48;;;;;;;2.62;0.70;;;11.60;51.60;;;;;;2379333;53;21007;-82
2022/04/08 07:23:14;;;;;;;3.28;0.77;;;11.50;51.60;;;;;;2657920;52;20931;-82
2022/04/08 07:25:40;;;;;;;3.53;0.90;;;11.50;51.70;;;;;;2628169;51;20897;-82
2022/04/08 07:28:07;;;;;;;4.03;2.03;;;11.50;51.80;;;;;;2657939;52;21968;-82
2022/04/08 07:30:34;;;;;;;7.70;3.20;;;11.50;51.90;;;;;;2400192;52;21380;-84
2022/04/08 07:33:01;;;;;;;7.82;3.87;;;11.50;51.90;;;;;;2656369;52;21288;-82
2022/04/08 07:35:28;;;;;;;5.03;1.92;;;11.60;52.10;;;;;;2376958;52;20910;-84
2022/04/08 07:37:54;;;;;;;4.53;1.62;;;11.50;52.10;;;;;;2392362;52;21029;-82
2022/04/08 07:40:21;;;;;;;2.28;1.00;;;11.50;52.20;;;;;;2639991;51;20970;-82
2022/04/08 07:42:48;;;;;;;3.17;0.93;;;11.50;52.20;;;;;;2627642;51;20978;-82
2022/04/08 07:45:14;;;;;;;2.95;0.90;;;11.50;52.30;;;;;;2394453;52;20993;-83
2022/04/08 07:47:41;;;;;;;1.50;0.50;;;11.50;52.30;;;;;;2631024;51;20899;-81
2022/04/08 07:50:12;;;;;;;2.25;0.50;;;11.50;52.40;;;;;;2657477;52;21347;-82
2022/04/08 07:52:39;;;;;;;1.35;0.50;;;11.50;52.50;;;;;;2657621;52;20931;-82
2022/04/08 07:55:06;;;;;;;0.68;0.37;;;11.60;52.70;;;;;;2657628;52;20954;-83
2022/04/08 07:57:32;;;;;;;1.85;0.40;;;11.60;52.70;;;;;;2399860;52;21742;-82
2022/04/08 07:59:59;;;;;;;1.67;0.43;;;11.60;52.80;;;;;;2657363;52;20911;-82
2022/04/08 08:02:29;;;;;;;0.95;0.40;;;11.60;52.80;;;;;;2386292;52;20936;-83
2022/04/08 08:04:55;;;;;;;0.73;0.30;;;11.70;52.90;;;;;;2392923;52;22002;-83
2022/04/08 08:07:22;;;;;;;1.35;0.40;;;11.70;53.00;;;;;;2399906;52;20956;-82
2022/04/08 08:09:48;;;;;;;2.58;0.60;;;11.70;53.20;;;;;;2639143;51;22301;-82
2022/04/08 08:12:22;;;;;;;1.73;0.50;;;11.80;53.20;;;;;;2649137;51;20994;-82
2022/04/08 08:14:49;;;;;;;1.30;0.43;;;11.70;53.10;;;;;;2656359;52;21082;-82
2022/04/08 08:17:15;;;;;;;1.08;0.40;;;11.90;53.30;;;;;;2658289;52;20904;-84
2022/04/08 08:19:41;;;;;;;0.95;0.50;;;11.90;53.30;;;;;;2399641;52;20930;-81
2022/04/08 08:22:07;;;;;;;1.08;0.40;;;12.00;53.30;;;;;;2400043;52;20967;-83
2022/04/08 08:24:34;;;;;;;1.10;0.40;;;12.00;53.30;;;;;;2399575;53;20947;-82
2022/04/08 08:27:00;;;;;;;0.70;0.30;;;12.10;53.30;;;;;;2658344;52;20926;-83
2022/04/08 08:29:26;;;;;;;1.15;0.35;;;12.10;53.40;;;;;;2658109;52;20939;-85
2022/04/08 08:31:53;;;;;;;0.65;0.30;;;12.20;53.50;;;;;;2658208;52;20967;-82
2022/04/08 08:34:20;;;;;;;0.40;0.20;;;12.20;53.60;;;;;;2657940;52;20951;-82
2022/04/08 08:36:46;;;;;;;0.88;0.22;;;12.30;53.70;;;;;;2640600;51;20961;-82
2022/04/08 08:39:13;;;;;;;1.33;0.52;;;12.40;53.70;;;;;;2646379;51;20887;-82
2022/04/08 08:41:39;;;;;;;2.60;1.00;;;12.40;53.50;;;;;;2658079;52;21803;-83
2022/04/08 08:44:06;;;;;;;1.45;0.55;;;12.50;53.40;;;;;;2399524;52;21006;-83
2022/04/08 08:46:32;;;;;;;1.75;0.70;;;12.50;53.30;;;;;;2658853;52;21062;-82
2022/04/08 08:48:59;;;;;;;1.70;0.60;;;12.50;53.30;;;;;;2658672;52;20924;-82
2022/04/08 08:51:25;;;;;;;2.33;0.68;;;12.70;53.50;;;;;;2400330;52;20986;-83
2022/04/08 08:53:52;;;;;;;3.03;0.90;;;12.60;53.40;;;;;;2399581;52;21049;-83
2022/04/08 08:56:18;;;;;;;1.90;0.80;;;12.60;53.30;;;;;;2655319;52;20927;-84
2022/04/08 08:58:45;;;;;;;1.77;0.70;;;12.60;53.30;;;;;;2652046;52;20957;-82
2022/04/08 09:01:11;;;;;;;2.15;0.60;;;12.70;53.40;;;;;;2650131;52;21018;-83
2022/04/08 09:03:39;;;;;;;3.53;0.70;;;12.70;53.30;;;;;;2649917;52;21834;-82
2022/04/08 09:06:09;;;;;;;1.87;0.70;;;12.80;53.40;;;;;;2393321;52;20919;-82
2022/04/08 09:08:36;;;;;;;1.17;0.60;;;12.80;53.60;;;;;;2621334;52;20934;-82
2022/04/08 09:11:03;;;;;;;2.60;0.68;;;12.80;53.60;;;;;;2393583;53;20926;-82
2022/04/08 09:13:30;;;;;;;2.22;1.00;;;12.80;53.60;;;;;;2650551;52;20951;-82
2022/04/08 09:16:00;;;;;;;1.08;0.43;;;12.90;53.70;;;;;;2649726;52;20911;-82
2022/04/08 09:18:30;;;;;;;1.23;0.60;;;12.90;53.90;;;;;;2650787;52;21030;-82
2022/04/08 09:20:58;;;;;;;0.93;0.50;;;13.00;53.90;;;;;;2393349;52;21664;-82
2022/04/08 09:23:24;;;;;;;1.35;0.60;;;13.00;54.00;;;;;;2624878;51;21924;-82
2022/04/08 09:26:03;;;;;;;2.10;0.85;;;13.00;54.00;;;;;;2388934;53;20977;-82
2022/04/08 09:28:33;;;;;;;1.80;0.65;;;13.10;54.40;;;;;;2650146;52;20896;-82
2022/04/08 09:31:01;;;;;;;2.10;0.60;;;13.20;54.20;;;;;;2393438;53;20927;-82
2022/04/08 09:33:28;;;;;;;1.42;0.60;;;13.10;53.80;;;;;;2650380;52;20931;-82
2022/04/08 09:35:56;;;;;;;1.42;0.57;;;13.30;53.90;;;;;;2649792;52;20911;-81
2022/04/08 09:38:27;;;;;;;1.37;0.50;;;13.30;53.90;;;;;;2392902;53;21038;-82
2022/04/08 09:41:04;;;;;;;1.25;0.50;;;13.30;53.80;;;;;;2649730;52;20884;-82
2022/04/08 09:43:34;;;;;;;1.33;0.60;;;13.40;54.10;;;;;;2650143;52;20921;-82
2022/04/08 09:46:19;;;;;;;1.70;0.75;;;13.40;54.00;;;;;;2650116;52;20959;-84
2022/04/08 09:48:46;;;;;;;1.33;0.70;;;13.40;54.10;;;;;;2650003;52;21516;-81
2022/04/08 09:51:16;;;;;;;2.05;0.60;;;13.50;53.90;;;;;;2649662;52;20959;-82
2022/04/08 09:53:42;;;;;;;1.62;0.70;;;13.50;53.90;;;;;;2649356;52;21034;-81
2022/04/08 09:56:21;;;;;;;2.30;1.00;;;13.40;53.70;;;;;;2393714;53;20923;-82
2022/04/08 09:58:52;;;;;;;3.20;1.30;;;13.40;54.00;;;;;;2650211;52;20927;-82
2022/04/08 10:01:20;;;;;;;2.37;1.10;;;13.40;53.90;;;;;;2393614;53;20899;-82
2022/04/08 10:03:47;;;;;;;2.70;1.25;;;13.40;53.80;;;;;;2649522;52;21939;-81
2022/04/08 10:06:13;;;;;;;2.75;1.15;;;13.40;53.70;;;;;;2393270;53;21464;-81
2022/04/08 10:08:40;;;;;;;2.78;1.02;;;13.40;53.70;;;;;;2650430;52;21493;-82
2022/04/08 10:11:10;;;;;;;2.80;1.15;;;13.40;53.70;;;;;;2649309;52;21015;-82
2022/04/08 10:13:58;;;;;;;2.17;0.88;;;13.30;53.80;;;;;;2649540;52;20911;-81
2022/04/08 10:16:24;;;;;;;2.05;0.85;;;13.30;54.20;;;;;;2649838;52;20994;-81
2022/04/08 10:18:52;;;;;;;2.03;0.80;;;13.30;53.80;;;;;;2650532;52;20950;-81
2022/04/08 10:21:18;;;;;;;1.90;0.80;;;13.30;53.90;;;;;;2393315;52;20986;-82
2022/04/08 10:23:49;;;;;;;1.83;0.70;;;13.30;54.00;;;;;;2650205;52;21933;-81
2022/04/08 10:26:20;;;;;;;2.30;0.80;;;13.20;54.20;;;;;;2651757;52;20904;-82
2022/04/08 10:28:46;;;;;;;2.10;0.85;;;13.20;54.00;;;;;;2396014;53;20982;-82
2022/04/08 10:31:20;;;;;;;3.30;1.02;;;13.00;53.90;;;;;;2651021;52;20954;-82
2022/04/08 10:33:49;;;;;;;1.92;0.60;;;13.10;54.00;;;;;;2372865;53;20923;-82
2022/04/08 10:36:15;;;;;;;1.83;0.70;;;13.10;54.20;;;;;;2373773;53;21374;-82
2022/04/08 10:38:42;;;;;;;2.20;0.80;;;13.10;54.30;;;;;;2651740;52;20895;-81
2022/04/08 10:41:11;;;;;;;2.72;0.90;;;13.00;54.30;;;;;;2393208;52;20982;-82
2022/04/08 10:43:48;;;;;;;2.70;0.82;;;13.00;54.40;;;;;;2651886;52;20990;-81
2022/04/08 10:46:27;;;;;;;2.20;1.12;;;13.00;54.80;;;;;;2392649;53;21935;-81
2022/04/08 10:48:59;;;;;;;1.77;0.73;;;13.00;54.60;;;;;;2649222;52;20903;-82
2022/04/08 10:51:29;;;;;;;3.53;0.95;;;13.00;54.90;;;;;;2651627;52;20915;-82
2022/04/08 10:54:02;;;;;;;3.15;0.70;;;13.00;54.60;;;;;;2634999;51;21033;-81
2022/04/08 10:56:34;;;;;;;2.92;0.82;;;13.00;54.60;;;;;;2391420;53;21013;-82
2022/04/08 10:59:00;;;;;;;1.55;0.68;;;12.90;54.30;;;;;;2619668;52;22113;-81
2022/04/08 11:01:27;;;;;;;2.33;0.85;;;12.90;54.30;;;;;;2369916;53;21992;-83
2022/04/08 11:03:59;;;;;;;1.48;0.70;;;12.80;54.20;;;;;;2391557;52;20967;-82
2022/04/08 11:06:26;;;;;;;2.30;0.93;;;12.80;54.30;;;;;;2393503;52;20923;-81
2022/04/08 11:08:52;;;;;;;3.53;1.02;;;12.80;54.40;;;;;;2650784;52;20993;-81
2022/04/08 11:11:31;;;;;;;2.30;0.75;;;12.70;54.40;;;;;;2393857;52;21034;-82
2022/04/08 11:13:58;;;;;;;2.53;0.65;;;12.60;54.80;;;;;;2650348;52;20935;-81
2022/04/08 11:17:01;;;;;;;2.00;0.80;;;12.60;54.60;;;;;;2393739;52;21832;-81
2022/04/08 11:19:28;;;;;;;2.15;0.95;;;12.60;55.10;;;;;;2394600;52;20930;-84
2022/04/08 11:21:56;;;;;;;2.03;0.77;;;12.60;54.50;;;;;;2650674;52;21207;-80
2022/04/08 11:24:22;;;;;;;1.45;0.75;;;12.50;54.50;;;;;;2650903;52;22426;-81
2022/04/08 11:26:53;;;;;;;2.40;0.85;;;12.50;54.50;;;;;;2393586;52;20915;-81
2022/04/08 11:29:24;;;;;;;1.65;0.75;;;12.40;54.50;;;;;;2650916;52;21038;-80
2022/04/08 11:32:05;;;;;;;2.28;0.75;;;12.40;54.60;;;;;;2650323;52;20903;-81
2022/04/08 11:34:31;;;;;;;1.73;0.80;;;12.30;54.50;;;;;;2623036;51;21442;-83
2022/04/08 11:36:59;;;;;;;2.08;0.82;;;12.30;54.50;;;;;;2375513;52;21980;-83
2022/04/08 11:39:30;;;;;;;1.50;0.57;;;12.20;54.60;;;;;;2629172;51;21495;-82
2022/04/08 11:41:57;;;;;;;2.75;0.90;;;12.20;54.70;;;;;;2634207;51;20882;-84
2022/04/08 11:44:24;;;;;;;2.10;0.73;;;12.10;54.70;;;;;;2629147;51;20962;-85
2022/04/08 11:46:51;;;;;;;2.85;0.93;;;12.10;55.40;;;;;;2635263;51;20990;-86
2022/04/08 11:49:19;;;;;;;2.10;0.73;;;12.10;55.00;;;;;;2376554;52;20935;-85
2022/04/08 11:51:45;;;;;;;2.67;0.70;;;12.00;55.00;;;;;;2651380;52;20914;-84
2022/04/08 11:54:12;;;;;;;3.72;1.50;;;12.00;55.30;;;;;;2651243;52;20959;-84
2022/04/08 11:56:47;;;;;;;3.22;1.37;;;12.00;55.50;;;;;;2650333;52;20919;-84
2022/04/08 11:59:13;;;;;;;3.50;1.10;;;12.00;55.90;;;;;;2393775;52;20935;-85
2022/04/08 12:01:40;;;;;;;2.47;1.10;;;12.00;55.70;;;;;;2650229;52;20942;-83
2022/04/08 12:04:12;;;;;;;2.78;1.05;;;12.00;55.80;;;;;;2650184;52;22286;-80
2022/04/08 12:06:43;;;;;;;2.10;0.70;;;12.00;56.10;;;;;;2650235;52;20946;-85
2022/04/08 12:09:10;;;;;;;1.70;0.70;;;12.00;56.00;;;;;;2621216;52;21396;-86
2022/04/08 12:11:38;;;;;;;2.12;0.88;;;12.00;55.90;;;;;;2373849;53;20931;-83
2022/04/08 12:14:09;;;;;;;2.35;1.00;;;12.00;56.60;;;;;;2650918;52;20926;-83
2022/04/08 12:16:37;;;;;;;2.37;0.90;;;12.10;56.30;;;;;;2650948;52;20931;-84
2022/04/08 12:19:03;;;;;;;2.15;0.70;;;12.10;56.40;;;;;;2392847;52;21097;-85
2022/04/08 12:21:48;;;;;;;;;;;12.10;56.40;;;;;;2653970;52;20955;-81
2022/04/08 12:24:15;;;;;;;1.33;0.57;;;12.20;56.80;;;;;;2649287;52;20061;-84
2022/04/08 12:26:42;;;;;;;1.45;0.60;;;12.20;56.20;;;;;;2650249;52;21225;-83
2022/04/08 12:29:15;;;;;;;1.90;0.73;;;12.20;56.30;;;;;;2650168;52;21341;-83
2022/04/08 12:31:54;;;;;;;2.05;0.88;;;12.20;56.60;;;;;;2372937;53;20927;-83
2022/04/08 12:34:21;;;;;;;1.87;0.80;;;12.30;56.70;;;;;;2650945;52;20923;-84
2022/04/08 12:36:49;;;;;;;1.85;0.85;;;12.30;56.40;;;;;;2393361;52;20982;-82
2022/04/08 12:39:16;;;;;;;2.40;0.90;;;12.30;56.40;;;;;;2395649;52;21948;-83
2022/04/08 12:41:43;;;;;;;3.60;1.10;;;12.30;56.60;;;;;;2372186;53;20958;-82
2022/04/08 12:44:10;;;;;;;3.53;1.30;;;12.30;56.70;;;;;;2392032;53;20939;-85
2022/04/08 12:46:37;;;;;;;2.55;1.25;;;12.30;56.70;;;;;;2393342;52;20931;-82
2022/04/08 12:49:08;;;;;;;2.20;1.10;;;12.30;56.70;;;;;;2649680;52;21026;-82
2022/04/08 12:51:35;;;;;;;2.30;0.80;;;12.40;57.00;;;;;;2394066;52;21772;-82